Time;durP1;ratioP1;P1;durP2;ratioP2;P2;SDS_P1;SDS_P2;PMS_P1;PMS_P2;Temp;Humidity;BMP_temperature;BMP_pressure;BME280_temperature;BME280_humidity;BME280_pressure;Samples;Min_cycle;Max_cycle;Signal;HPM_P1;HPM_P2
2022/10/04 00:08:08;;;;;;;7.73;3.00;;;16.40;99.90;;;;;;7875145;74;26647;-57
2022/10/04 00:18:30;;;;;;;4.00;2.97;;;16.40;99.90;;;;;;7894848;74;26218;-57
2022/10/04 00:28:42;;;;;;;9.17;3.53;;;16.30;99.90;;;;;;7883974;74;26755;-55
2022/10/04 00:38:46;;;;;;;7.70;3.30;;;16.30;99.90;;;;;;7904010;73;26232;-55
2022/10/04 00:49:06;;;;;;;6.13;2.97;;;16.30;99.90;;;;;;7878824;74;26260;-57
2022/10/04 00:59:30;;;;;;;8.37;3.73;;;16.20;99.90;;;;;;7884453;74;26334;-57
2022/10/04 01:09:35;;;;;;;7.50;3.10;;;16.20;99.90;;;;;;7917335;74;26233;-57
2022/10/04 01:19:40;;;;;;;6.10;3.00;;;16.10;99.90;;;;;;7891477;74;26244;-57
2022/10/04 01:29:42;;;;;;;4.57;2.80;;;16.10;99.90;;;;;;7855960;74;26777;-58
2022/10/04 01:39:45;;;;;;;5.03;3.30;;;16.10;99.90;;;;;;7909771;73;26288;-57
2022/10/04 01:49:50;;;;;;;13.73;3.20;;;16.10;99.90;;;;;;7935405;74;26699;-56
2022/10/04 01:59:56;;;;;;;7.87;3.17;;;16.00;99.90;;;;;;7869272;73;26267;-57
2022/10/04 02:10:02;;;;;;;4.80;2.90;;;16.00;99.90;;;;;;7842105;73;26252;-56
2022/10/04 02:20:07;;;;;;;4.63;3.03;;;15.90;99.90;;;;;;7894696;74;26337;-57
2022/10/04 02:30:12;;;;;;;5.07;2.80;;;15.90;99.90;;;;;;7909525;74;26726;-56
2022/10/04 02:40:17;;;;;;;7.27;3.17;;;15.90;99.90;;;;;;7929377;74;26226;-54
2022/10/04 02:50:38;;;;;;;6.10;3.00;;;15.90;99.90;;;;;;7905052;74;27247;-53
2022/10/04 03:00:50;;;;;;;11.13;3.30;;;15.80;99.90;;;;;;7869238;74;26699;-57
2022/10/04 03:10:53;;;;;;;4.80;2.90;;;15.80;99.90;;;;;;7881431;74;26708;-57
2022/10/04 03:20:55;;;;;;;7.10;3.37;;;15.70;99.90;;;;;;7951975;74;26713;-55
2022/10/04 03:30:59;;;;;;;8.07;3.03;;;15.70;99.90;;;;;;7841649;74;26718;-56
2022/10/04 03:41:02;;;;;;;4.50;2.77;;;15.70;99.90;;;;;;7883155;74;26227;-54
2022/10/04 03:51:08;;;;;;;5.83;3.00;;;15.70;99.90;;;;;;7881892;74;26284;-54
2022/10/04 04:01:19;;;;;;;6.47;2.87;;;15.70;99.90;;;;;;7896861;73;26702;-56
2022/10/04 04:11:28;;;;;;;6.30;3.47;;;15.60;99.90;;;;;;7863152;74;26704;-55
2022/10/04 04:21:32;;;;;;;6.37;3.00;;;15.40;99.90;;;;;;7913123;73;26337;-55
2022/10/04 04:31:43;;;;;;;10.37;3.30;;;15.60;99.90;;;;;;7879509;74;26697;-54
2022/10/04 04:41:46;;;;;;;5.13;2.77;;;15.50;99.90;;;;;;7906814;74;26722;-59
2022/10/04 04:51:51;;;;;;;6.43;3.30;;;15.50;99.90;;;;;;7880282;73;26624;-57
2022/10/04 05:01:53;;;;;;;13.47;3.33;;;15.50;99.90;;;;;;7884558;73;26244;-56
2022/10/04 05:11:59;;;;;;;12.90;4.83;;;15.40;99.90;;;;;;7904333;73;26230;-57
2022/10/04 05:22:04;;;;;;;15.70;7.47;;;15.40;99.90;;;;;;7880299;73;26871;-57
2022/10/04 05:32:28;;;;;;;10.97;4.60;;;15.40;99.90;;;;;;7884944;73;26268;-55
2022/10/04 05:42:47;;;;;;;7.20;3.57;;;15.40;99.90;;;;;;7906985;74;26284;-57
2022/10/04 05:52:51;;;;;;;4.83;3.30;;;15.40;99.90;;;;;;7943115;74;26779;-57
2022/10/04 06:03:14;;;;;;;7.17;3.70;;;15.40;99.90;;;;;;7936169;74;26238;-58
2022/10/04 06:13:32;;;;;;;7.57;3.90;;;15.40;99.90;;;;;;7853109;73;27143;-58
2022/10/04 06:23:37;;;;;;;12.80;4.20;;;15.40;99.90;;;;;;7889385;74;26236;-57
2022/10/04 06:33:59;;;;;;;5.77;3.80;;;15.40;99.90;;;;;;7857464;73;26230;-57
2022/10/04 06:44:05;;;;;;;31.10;5.60;;;15.40;99.90;;;;;;7854702;74;27199;-58
2022/10/04 06:54:23;;;;;;;11.67;4.57;;;15.60;99.90;;;;;;7896326;73;26404;-56
2022/10/04 07:04:37;;;;;;;11.03;4.63;;;15.60;99.90;;;;;;7904426;74;26252;-56
2022/10/04 07:14:42;;;;;;;12.30;4.20;;;15.70;99.90;;;;;;7840734;74;26243;-57
2022/10/04 07:25:06;;;;;;;31.57;14.67;;;15.70;99.90;;;;;;7936787;74;26232;-58
2022/10/04 07:35:27;;;;;;;52.30;27.63;;;15.60;99.90;;;;;;7862702;74;27029;-57
2022/10/04 07:45:36;;;;;;;41.10;20.97;;;15.80;99.90;;;;;;7886445;74;26288;-56
2022/10/04 07:55:53;;;;;;;61.37;30.60;;;15.90;99.90;;;;;;7919859;74;26307;-57
2022/10/04 08:06:10;;;;;;;53.23;23.03;;;16.00;99.90;;;;;;7836412;74;26232;-57
2022/10/04 08:16:16;;;;;;;42.00;23.63;;;16.10;99.90;;;;;;7842726;74;26759;-57
2022/10/04 08:26:30;;;;;;;45.33;22.63;;;16.40;99.90;;;;;;7892756;74;26245;-57
2022/10/04 08:36:51;;;;;;;27.67;15.10;;;16.70;99.90;;;;;;7856244;74;26237;-57
2022/10/04 08:47:05;;;;;;;37.10;16.57;;;16.80;99.90;;;;;;7880431;74;27110;-58
2022/10/04 08:57:34;;;;;;;40.63;18.20;;;16.90;99.90;;;;;;7896664;74;26222;-59
2022/10/04 09:08:05;;;;;;;57.07;24.93;;;17.20;99.90;;;;;;7897766;73;26277;-56
2022/10/04 09:18:22;;;;;;;25.90;14.43;;;17.40;99.90;;;;;;7887579;74;26272;-58
2022/10/04 09:28:49;;;;;;;46.53;21.03;;;17.60;99.90;;;;;;7866737;74;26730;-56
2022/10/04 09:39:03;;;;;;;37.20;16.30;;;17.70;99.90;;;;;;7815787;73;26303;-56
2022/10/04 09:49:14;;;;;;;38.33;15.90;;;17.60;99.90;;;;;;7900399;74;26773;-57
2022/10/04 09:59:26;;;;;;;23.47;7.77;;;17.60;99.90;;;;;;7899366;74;26360;-55
2022/10/04 10:20:22;;;;;;;8.73;4.43;;;17.70;99.90;;;;;;7905951;73;26364;-52
2022/10/04 10:30:39;;;;;;;10.97;4.50;;;17.50;99.90;;;;;;7887087;74;27349;-56
2022/10/04 10:40:58;;;;;;;9.17;4.10;;;17.70;99.90;;;;;;7871077;74;26346;-55
2022/10/04 10:51:09;;;;;;;8.17;3.97;;;17.70;99.90;;;;;;7880471;74;26315;-55
2022/10/04 11:01:43;;;;;;;14.07;3.53;;;17.80;99.90;;;;;;7843763;73;26253;-54
2022/10/04 11:12:08;;;;;;;10.90;4.43;;;17.80;99.90;;;;;;7895081;74;26714;-53
2022/10/04 11:22:41;;;;;;;15.33;6.50;;;17.80;99.90;;;;;;7886522;74;26347;-56
2022/10/04 11:32:52;;;;;;;12.67;5.20;;;17.80;99.90;;;;;;7899900;74;26219;-56
2022/10/04 11:43:03;;;;;;;13.30;5.47;;;17.80;99.90;;;;;;7897478;74;26221;-57
2022/10/04 11:53:22;;;;;;;18.37;4.67;;;17.80;99.90;;;;;;7923730;74;26245;-57
2022/10/04 12:03:58;;;;;;;5.73;2.90;;;17.80;99.90;;;;;;7896280;73;26319;-55
2022/10/04 12:14:23;;;;;;;17.77;3.83;;;17.80;99.90;;;;;;7675879;75;26351;-57
2022/10/04 12:24:32;;;;;;;10.90;3.50;;;17.80;99.90;;;;;;7896250;74;26230;-56
2022/10/04 12:34:40;;;;;;;6.53;2.93;;;17.90;99.90;;;;;;7894380;74;26335;-55
2022/10/04 12:44:49;;;;;;;10.03;3.20;;;17.80;99.90;;;;;;7887634;74;26277;-56
2022/10/04 12:54:57;;;;;;;12.73;3.97;;;17.90;99.90;;;;;;7929157;73;26318;-51
2022/10/04 13:05:34;;;;;;;20.80;7.13;;;17.90;99.90;;;;;;7868502;74;26203;-54
2022/10/04 13:16:07;;;;;;;15.23;6.73;;;17.90;99.90;;;;;;7861765;73;26206;-55
2022/10/04 13:26:29;;;;;;;10.53;5.30;;;18.00;99.90;;;;;;7862345;74;26297;-53
2022/10/04 13:36:53;;;;;;;21.93;6.13;;;18.00;99.90;;;;;;7879174;74;26237;-54
2022/10/04 13:47:13;;;;;;;11.70;5.13;;;18.00;99.90;;;;;;7864614;74;26292;-56
2022/10/04 13:57:21;;;;;;;10.20;4.07;;;18.00;99.90;;;;;;7877391;74;26779;-52
2022/10/04 14:07:50;;;;;;;11.87;4.33;;;18.00;99.90;;;;;;7831042;73;26237;-51
2022/10/04 14:18:11;;;;;;;8.90;3.53;;;18.00;99.90;;;;;;7901393;74;26705;-51
2022/10/04 14:28:36;;;;;;;9.50;4.33;;;18.00;99.90;;;;;;7882996;74;26224;-54
2022/10/04 14:38:52;;;;;;;10.40;4.53;;;18.00;99.90;;;;;;7865325;74;26719;-52
2022/10/04 14:49:00;;;;;;;16.03;4.60;;;18.00;99.90;;;;;;7842984;74;26839;-56
2022/10/04 14:59:26;;;;;;;15.30;3.80;;;18.00;99.90;;;;;;7837125;74;26727;-56
2022/10/04 15:09:51;;;;;;;10.33;5.13;;;18.00;99.90;;;;;;7878456;74;26202;-58
2022/10/04 15:20:03;;;;;;;8.77;3.40;;;17.90;99.90;;;;;;7853563;74;26300;-56
2022/10/04 15:30:31;;;;;;;6.63;2.70;;;18.00;99.90;;;;;;7842559;74;26401;-55
2022/10/04 15:40:40;;;;;;;9.83;3.43;;;17.90;99.90;;;;;;7895846;74;26602;-51
2022/10/04 15:51:00;;;;;;;6.20;2.80;;;18.00;99.90;;;;;;7852569;74;26240;-54
2022/10/04 16:01:20;;;;;;;11.03;5.13;;;18.00;99.90;;;;;;7912657;74;26214;-51
2022/10/04 16:11:35;;;;;;;12.27;3.53;;;18.00;99.90;;;;;;7792923;74;26782;-52
2022/10/04 16:21:49;;;;;;;20.20;6.30;;;17.90;99.90;;;;;;7878389;74;26257;-55
2022/10/04 16:31:55;;;;;;;10.97;5.13;;;17.90;99.90;;;;;;7835836;73;26304;-53
2022/10/04 16:42:03;;;;;;;10.93;4.90;;;17.90;99.90;;;;;;7865399;74;26231;-51
2022/10/04 16:52:25;;;;;;;10.40;4.37;;;17.80;99.90;;;;;;7839361;74;26738;-53
2022/10/04 17:02:33;;;;;;;7.87;5.30;;;17.80;99.90;;;;;;7829836;74;26245;-53
2022/10/04 17:12:45;;;;;;;9.53;4.77;;;17.40;99.90;;;;;;7848692;74;26808;-54
2022/10/04 17:23:11;;;;;;;10.57;4.47;;;17.40;99.90;;;;;;7807515;74;26332;-57
2022/10/04 17:33:23;;;;;;;10.70;4.43;;;17.60;99.90;;;;;;7862476;74;26234;-53
2022/10/04 17:43:54;;;;;;;13.97;4.57;;;17.60;99.90;;;;;;7887837;74;26237;-55
2022/10/04 18:04:26;;;;;;;12.70;4.97;;;17.60;99.90;;;;;;7854928;73;26220;-54
2022/10/04 18:14:38;;;;;;;11.83;6.57;;;17.60;99.90;;;;;;7848101;73;26358;-54
2022/10/04 18:24:44;;;;;;;15.17;5.17;;;17.50;99.90;;;;;;7882831;74;26639;-55
2022/10/04 18:34:50;;;;;;;18.37;5.93;;;17.50;99.90;;;;;;7836830;74;26274;-52
2022/10/04 18:45:00;;;;;;;20.00;5.47;;;17.60;99.90;;;;;;7866947;73;26347;-53
2022/10/04 18:55:09;;;;;;;13.27;4.63;;;17.50;99.90;;;;;;7877919;73;26285;-53
2022/10/04 19:05:33;;;;;;;25.33;5.47;;;17.50;99.90;;;;;;7852224;73;26740;-56
2022/10/04 19:15:38;;;;;;;21.97;6.13;;;17.50;99.90;;;;;;7843254;74;26328;-54
2022/10/04 19:25:46;;;;;;;30.60;6.67;;;17.50;99.90;;;;;;7873660;74;26289;-55
2022/10/04 19:36:08;;;;;;;22.10;6.27;;;17.40;99.90;;;;;;7859032;73;26385;-55
2022/10/04 19:46:29;;;;;;;21.67;5.73;;;17.40;99.90;;;;;;7850847;74;26296;-52
2022/10/04 19:56:34;;;;;;;19.67;6.80;;;17.40;99.90;;;;;;7858651;74;26799;-54
2022/10/04 20:06:40;;;;;;;14.60;5.30;;;17.40;99.90;;;;;;7841801;73;26816;-52
2022/10/04 20:16:52;;;;;;;15.47;6.83;;;17.30;99.90;;;;;;7888228;74;26227;-54
2022/10/04 20:26:54;;;;;;;15.80;4.70;;;17.30;99.90;;;;;;7902729;74;26266;-55
2022/10/04 20:36:57;;;;;;;11.43;4.83;;;17.30;99.90;;;;;;7905212;74;26540;-54
2022/10/04 20:47:00;;;;;;;11.07;4.47;;;17.30;99.90;;;;;;7936407;74;26289;-55
2022/10/04 20:57:03;;;;;;;13.13;5.00;;;17.30;99.90;;;;;;7882376;74;26244;-52
2022/10/04 21:07:07;;;;;;;19.13;8.57;;;17.30;99.90;;;;;;7841910;73;26252;-55
2022/10/04 21:17:29;;;;;;;13.20;5.27;;;17.20;99.90;;;;;;7831444;74;26246;-53
2022/10/04 21:27:42;;;;;;;11.90;4.83;;;17.20;99.90;;;;;;7818926;75;26338;-54
2022/10/04 21:37:43;;;;;;;9.40;5.27;;;17.20;99.90;;;;;;7875766;74;26211;-56
2022/10/04 21:47:46;;;;;;;15.90;6.13;;;17.20;99.90;;;;;;7809241;74;26237;-53
2022/10/04 21:57:48;;;;;;;13.20;5.47;;;17.10;99.90;;;;;;7869414;74;26824;-52
2022/10/04 22:07:51;;;;;;;14.57;5.73;;;17.10;99.90;;;;;;7883024;74;26311;-56
2022/10/04 22:17:54;;;;;;;13.93;5.00;;;16.90;99.90;;;;;;7844281;74;26219;-54
2022/10/04 22:27:56;;;;;;;12.87;5.47;;;17.00;99.90;;;;;;7853934;73;27000;-54
2022/10/04 22:37:59;;;;;;;13.50;6.43;;;17.10;99.90;;;;;;7868713;73;26245;-52
2022/10/04 22:48:05;;;;;;;14.10;4.87;;;16.90;99.90;;;;;;7853434;74;26280;-54
2022/10/04 22:58:11;;;;;;;9.03;4.83;;;17.00;99.90;;;;;;7854616;74;26300;-54
2022/10/04 23:08:13;;;;;;;9.40;4.20;;;17.00;99.90;;;;;;7885681;74;26311;-56
2022/10/04 23:18:17;;;;;;;7.13;4.00;;;17.00;99.90;;;;;;7862967;74;26396;-56
2022/10/04 23:28:20;;;;;;;7.90;4.47;;;17.00;99.90;;;;;;7910020;74;26227;-56
2022/10/04 23:38:24;;;;;;;7.57;4.70;;;16.80;99.90;;;;;;7849240;74;26753;-54
2022/10/04 23:48:28;;;;;;;8.13;3.93;;;16.40;99.90;;;;;;7856449;73;26250;-57
2022/10/04 23:58:33;;;;;;;8.80;4.60;;;16.60;99.90;;;;;;7829761;74;26728;-58
